Detall de PIREP

Printer-friendly versionPDF version

[2015/04/26 18:01:00]
Flight IATA:CT3418
Pilot Number:016
Company ICAO:CAT
Aircraft Type:B744/E
PAX:318
Departing Airport: LEBL
Destination Airport: RJAA
Alternate Airport:RJTY
Online: VATSIM
Route:DALIN UN870 MAXIR UN853 KINES DCT GLA UJ32 MOLUS UN871 KUDES UN851 LOHRE UN746 KOKAT R355 ULAM A333 UHHH R211 LANEP B358 IGROD B451 KADBO R211 GTC V15 SYE
Flight Level:F330
No Slew and time accel
No pause
Crash detect
Detect pilot in Cockpit between each 30 and 45 minutes
18:01 Zero fuel Weight: 453275 Lbs, Fuel Weight: 336072 Lbs
18:01 VATSIM:LEBL 270030Z VRB02KT 9999 FEW015 15/13 Q1003 NOSIG
18:01 VATSIM:RJAA 270030Z 25005KT 170V310 CAVOK 22/14 Q1018 BECMG 23005KT RMK A3009
18:03 Parking Brakes off
18:14 Take-off
18:14 Take off Weight: 785221 Lbs
18:14 Wind: 156º @ 006 Knots Heading: 244º
18:14 POS N41º 17´ 50´´ E002º 04´ 45´´
18:14 Flaps:3 at 188 Knots
18:14 Gear Up: 190 Knots
18:15 Flaps:2 at 221 Knots
18:16 Flaps:1 at 251 Knots
18:19 Flaps:0 at 252 Knots
18:29 Wind:206º@000 Knots Heading: 045º Ground Speed: 504 Knots Altitude 28238 ft
18:37 TOC
18:37 Fuel Weight: 311975 Lb
18:44 Wind:084º@030 Knots Heading: 052º Ground Speed: 467 Knots Altitude 33717 ft
18:59 Wind:082º@032 Knots Heading: 018º Ground Speed: 468 Knots Altitude 33753 ft
19:14 Wind:082º@032 Knots Heading: 029º Ground Speed: 463 Knots Altitude 33753 ft
19:29 Wind:082º@032 Knots Heading: 030º Ground Speed: 463 Knots Altitude 33753 ft
19:44 Wind:082º@032 Knots Heading: 038º Ground Speed: 458 Knots Altitude 33753 ft
19:59 Wind:082º@032 Knots Heading: 039º Ground Speed: 459 Knots Altitude 33753 ft
20:14 Wind:082º@032 Knots Heading: 041º Ground Speed: 458 Knots Altitude 33753 ft
20:29 Wind:082º@032 Knots Heading: 043º Ground Speed: 456 Knots Altitude 33753 ft
20:44 Wind:082º@032 Knots Heading: 044º Ground Speed: 456 Knots Altitude 33753 ft
20:59 Wind:082º@032 Knots Heading: 047º Ground Speed: 456 Knots Altitude 33753 ft
21:14 Wind:160º@010 Knots Heading: 048º Ground Speed: 486 Knots Altitude 33756 ft
21:29 Wind:159º@004 Knots Heading: 049º Ground Speed: 483 Knots Altitude 33727 ft
21:44 Wind:139º@018 Knots Heading: 054º Ground Speed: 477 Knots Altitude 33753 ft
21:59 Wind:136º@015 Knots Heading: 055º Ground Speed: 476 Knots Altitude 33750 ft
22:14 Wind:127º@015 Knots Heading: 059º Ground Speed: 466 Knots Altitude 35830 ft
22:29 Wind:127º@015 Knots Heading: 062º Ground Speed: 465 Knots Altitude 35826 ft
22:44 Wind:127º@015 Knots Heading: 066º Ground Speed: 464 Knots Altitude 35826 ft
22:59 Wind:127º@015 Knots Heading: 070º Ground Speed: 464 Knots Altitude 35826 ft
23:14 Wind:127º@015 Knots Heading: 076º Ground Speed: 462 KnotsAltitude 35830 ft
23:29 Wind:127º@015 Knots Heading: 080º Ground Speed: 461 Knots Altitude 35830 ft
23:44 Wind:127º@015 Knots Heading: 087º Ground Speed: 460 Knots Altitude 35830 ft
23:59 Wind:127º@015 Knots Heading: 091º Ground Speed: 460 Knots Altitude 35830 ft
00:14 Wind:127º@015 Knots Heading: 096º Ground Speed: 459 Knots Altitude 35830 ft
00:29 Wind:127º@015 Knots Heading: 100º Ground Speed: 458 Knots Altitude 35830 ft
00:44 Wind:127º@015 Knots Heading: 104º Ground Speed: 458 Knots Altitude 35830 ft
00:59 Wind:127º@015 Knots Heading: 109º Ground Speed: 457 Knots Altitude 35830 ft
01:14 Wind:127º@015 Knots Heading: 114º Ground Speed: 457 Knots Altitude 35830 ft
01:29 Wind:127º@015 Knots Heading: 117º Ground Speed: 457 Knots Altitude 35830 ft
01:44 Wind:127º@015 Knots Heading: 120º Ground Speed: 457 Knots Altitude 35830 ft
01:59 Wind:127º@015 Knots Heading: 124ºGround Speed: 457 Knots Altitude 35830 ft
02:14 Wind:127º@015 Knots Heading: 127º Ground Speed: 457 Knots Altitude 35830 ft
02:29 Wind:127º@015 Knots Heading: 130º Ground Speed: 457 Knots Altitude 35826 ft
02:44 Wind:127º@015 Knots Heading: 133º Ground Speed: 457 Knots Altitude 35826 ft
02:59 Wind:127º@015 Knots Heading: 135º Ground Speed: 457 Knots Altitude 35830 ft
03:14 Wind:127º@015 Knots Heading: 137º Ground Speed: 457 Knots Altitude 35830 ft
03:29 Wind:127º@015 Knots Heading: 139º Ground Speed: 457 Knots Altitude 35830 ft
03:44 Wind:127º@015 Knots Heading: 140º Ground Speed: 457 Knots Altitude 35830 ft
03:59 Wind:127º@015 Knots Heading: 142º Ground Speed: 457 Knots Altitude 35830 ft
04:14 Wind:127º@015 Knots Heading: 143º Ground Speed: 458 Knots Altitude 35826 ft
04:29 Wind:127º@015 Knots Heading: 145º Ground Speed: 458 Knots Altitude 35830 ft
04:44 Wind:127º@015 Knots Heading: 154º Ground Speed: 459 Knots Altitude 35830 ft
04:59 Wind:127º@015 Knots Heading: 175º Ground Speed: 462 Knots Altitude 35830 ft
05:14 Wind:127º@015 Knots Heading: 175º Ground Speed: 462 Knots Altitude 35830 ft
05:29 Wind:127º@015 Knots Heading: 175º Ground Speed: 462 Knots Altitude 35830 ft
05:44 Wind:127º@015 Knots Heading: 161º Ground Speed: 460 Knots Altitude 35830 ft
05:59 Wind:155º@009 Knots Heading: 152º Ground Speed: 481 Knots Altitude 36072 ft
06:13 TOD
06:13 Fuel Weight: 54781 Lb
06:14 Wind:196º@007 Knots Heading: 153º Ground Speed: 408 Knots Altitude 30708 ft
06:17 Flaps:1 at 260 Knots
06:26 Flaps:2 at 216 Knots
06:28 Flaps:3 at 194 Knots
06:29 Wind:204º@002 Knots Heading: 116º Ground Speed: 187 Knots Altitude 2893 ft
06:29 Gear Down: 171 Knots
06:29 Flaps:4 at 159 Knots
06:30 Flaps:5 at 146 Knots
06:31 Flaps:6 at 144 Knots
06:33TouchDown:Rate -203 ft/min Speed: 146 Knots
06:33 VATSIM:RJAA 271330Z 16003KT 9000 NSC 15/13 Q1017 NOSIG
06:33 Land
06:33 Wind:201º@002 Knots
06:33 Heading: 149º
06:33 Flight Duration: 12:19
06:33 Landing Weight: 504199 Lbs
06:33 POS N35º 47´ 21´´ E140º 23´ 22´´
06:34 Parking brakes on
06:34 Block to Block Duration: 12:31
06:34 Final Fuel: 50560 Lbls
06:34 Spent Fuel: 285512 Lbls
06:34 Flight Length: 5616 NM
06:34 TOD Land Length: 91 NM

Exportar CSV

Powered by Drupal - Modified by Danger4k